sensor_id;sensor_type;location;lat;lon;timestamp;pressure;altitude;pressure_sealevel;temperature;humidity
38612;BME280;24368;52.156;20.788;2023-01-10T00:04:03;99522.55;;;5.51;100.00
38612;BME280;24368;52.156;20.788;2023-01-10T00:09:04;99527.64;;;5.53;100.00
38612;BME280;24368;52.156;20.788;2023-01-10T00:14:06;99533.41;;;5.53;100.00
38612;BME280;24368;52.156;20.788;2023-01-10T00:19:08;99539.13;;;5.55;100.00
38612;BME280;24368;52.156;20.788;2023-01-10T00:24:11;99544.11;;;5.75;100.00
38612;BME280;24368;52.156;20.788;2023-01-10T00:29:27;99551.01;;;5.63;100.00
38612;BME280;24368;52.156;20.788;2023-01-10T00:34:31;99559.96;;;5.58;100.00
38612;BME280;24368;52.156;20.788;2023-01-10T00:39:33;99562.16;;;5.50;100.00
38612;BME280;24368;52.156;20.788;2023-01-10T00:44:35;99565.98;;;5.58;100.00
38612;BME280;24368;52.156;20.788;2023-01-10T00:49:36;99574.66;;;5.51;100.00
38612;BME280;24368;52.156;20.788;2023-01-10T00:54:38;99583.43;;;5.49;100.00
38612;BME280;24368;52.156;20.788;2023-01-10T00:59:40;99588.27;;;5.53;100.00
38612;BME280;24368;52.156;20.788;2023-01-10T01:04:41;99596.68;;;5.51;100.00
38612;BME280;24368;52.156;20.788;2023-01-10T01:09:43;99598.86;;;5.61;100.00
38612;BME280;24368;52.156;20.788;2023-01-10T01:15:04;99603.05;;;5.63;100.00
38612;BME280;24368;52.156;20.788;2023-01-10T01:20:07;99610.05;;;5.59;100.00
38612;BME280;24368;52.156;20.788;2023-01-10T01:25:09;99609.25;;;5.59;100.00
38612;BME280;24368;52.156;20.788;2023-01-10T01:30:11;99613.12;;;5.62;100.00
38612;BME280;24368;52.156;20.788;2023-01-10T01:35:14;99620.89;;;5.57;100.00
38612;BME280;24368;52.156;20.788;2023-01-10T01:40:19;99625.67;;;5.47;100.00
38612;BME280;24368;52.156;20.788;2023-01-10T01:55:45;99637.52;;;5.53;100.00
38612;BME280;24368;52.156;20.788;2023-01-10T02:00:47;99634.59;;;5.45;100.00
38612;BME280;24368;52.156;20.788;2023-01-10T02:05:49;99642.41;;;5.51;100.00
38612;BME280;24368;52.156;20.788;2023-01-10T02:16:03;99660.93;;;5.49;100.00
38612;BME280;24368;52.156;20.788;2023-01-10T02:46:38;99681.75;;;5.49;100.00
38612;BME280;24368;52.156;20.788;2023-01-10T02:51:41;99673.73;;;5.57;100.00
38612;BME280;24368;52.156;20.788;2023-01-10T02:57:24;99681.97;;;5.58;100.00
38612;BME280;24368;52.156;20.788;2023-01-10T03:13:29;99690.54;;;5.51;100.00
38612;BME280;24368;52.156;20.788;2023-01-10T03:18:44;99693.64;;;5.62;100.00
38612;BME280;24368;52.156;20.788;2023-01-10T03:23:50;99692.63;;;5.64;100.00
38612;BME280;24368;52.156;20.788;2023-01-10T03:29:01;99691.45;;;5.60;100.00
38612;BME280;24368;52.156;20.788;2023-01-10T03:34:04;99698.51;;;5.50;100.00
38612;BME280;24368;52.156;20.788;2023-01-10T03:49:48;99714.50;;;5.60;100.00
38612;BME280;24368;52.156;20.788;2023-01-10T03:54:54;99719.30;;;5.55;100.00
38612;BME280;24368;52.156;20.788;2023-01-10T03:59:57;99725.88;;;5.42;100.00
38612;BME280;24368;52.156;20.788;2023-01-10T04:04:59;99727.39;;;5.49;100.00
38612;BME280;24368;52.156;20.788;2023-01-10T04:10:02;99740.00;;;5.50;100.00
38612;BME280;24368;52.156;20.788;2023-01-10T04:15:05;99752.73;;;5.52;100.00
38612;BME280;24368;52.156;20.788;2023-01-10T04:20:07;99757.45;;;5.52;100.00
38612;BME280;24368;52.156;20.788;2023-01-10T04:25:09;99769.58;;;5.52;100.00
38612;BME280;24368;52.156;20.788;2023-01-10T04:30:11;99776.27;;;5.44;100.00
38612;BME280;24368;52.156;20.788;2023-01-10T04:35:13;99776.50;;;5.39;100.00
38612;BME280;24368;52.156;20.788;2023-01-10T04:40:15;99789.04;;;5.49;100.00
38612;BME280;24368;52.156;20.788;2023-01-10T04:45:20;99795.47;;;5.51;100.00
38612;BME280;24368;52.156;20.788;2023-01-10T04:50:22;99807.70;;;5.40;100.00
38612;BME280;24368;52.156;20.788;2023-01-10T04:55:24;99822.15;;;5.36;100.00
38612;BME280;24368;52.156;20.788;2023-01-10T05:00:26;99833.13;;;5.32;100.00
38612;BME280;24368;52.156;20.788;2023-01-10T05:05:28;99839.54;;;5.25;100.00
38612;BME280;24368;52.156;20.788;2023-01-10T05:10:29;99843.58;;;5.29;100.00
38612;BME280;24368;52.156;20.788;2023-01-10T05:15:31;99850.23;;;5.21;100.00
38612;BME280;24368;52.156;20.788;2023-01-10T05:20:33;99863.75;;;5.22;100.00
38612;BME280;24368;52.156;20.788;2023-01-10T05:25:35;99870.34;;;5.32;100.00
38612;BME280;24368;52.156;20.788;2023-01-10T05:30:37;99879.37;;;5.27;100.00
38612;BME280;24368;52.156;20.788;2023-01-10T05:35:38;99891.88;;;5.24;100.00
38612;BME280;24368;52.156;20.788;2023-01-10T05:40:40;99901.13;;;5.15;100.00
38612;BME280;24368;52.156;20.788;2023-01-10T05:45:42;99912.59;;;5.14;100.00
38612;BME280;24368;52.156;20.788;2023-01-10T05:50:44;99921.98;;;5.06;100.00
38612;BME280;24368;52.156;20.788;2023-01-10T05:55:58;99931.09;;;5.04;100.00
38612;BME280;24368;52.156;20.788;2023-01-10T06:01:00;99942.08;;;5.04;100.00
38612;BME280;24368;52.156;20.788;2023-01-10T06:06:02;99949.02;;;5.09;100.00
38612;BME280;24368;52.156;20.788;2023-01-10T06:11:05;99963.88;;;5.04;100.00
38612;BME280;24368;52.156;20.788;2023-01-10T06:16:07;99974.37;;;5.12;100.00
38612;BME280;24368;52.156;20.788;2023-01-10T06:21:09;99979.52;;;5.20;100.00
38612;BME280;24368;52.156;20.788;2023-01-10T06:26:11;99986.33;;;5.05;100.00
38612;BME280;24368;52.156;20.788;2023-01-10T06:31:12;99997.23;;;5.04;100.00
38612;BME280;24368;52.156;20.788;2023-01-10T06:36:15;100005.00;;;5.07;100.00
38612;BME280;24368;52.156;20.788;2023-01-10T06:41:17;100013.67;;;4.98;100.00
38612;BME280;24368;52.156;20.788;2023-01-10T06:46:19;100018.35;;;4.96;100.00
38612;BME280;24368;52.156;20.788;2023-01-10T06:51:20;100030.18;;;4.94;100.00
38612;BME280;24368;52.156;20.788;2023-01-10T06:56:22;100035.54;;;4.91;100.00
38612;BME280;24368;52.156;20.788;2023-01-10T07:01:24;100042.52;;;4.86;100.00
38612;BME280;24368;52.156;20.788;2023-01-10T07:06:25;100055.34;;;4.94;100.00
38612;BME280;24368;52.156;20.788;2023-01-10T07:11:27;100058.06;;;4.91;100.00
38612;BME280;24368;52.156;20.788;2023-01-10T07:16:29;100056.04;;;4.88;100.00
38612;BME280;24368;52.156;20.788;2023-01-10T07:21:30;100056.07;;;4.87;100.00
38612;BME280;24368;52.156;20.788;2023-01-10T07:26:32;100067.24;;;4.96;100.00
38612;BME280;24368;52.156;20.788;2023-01-10T07:31:34;100073.02;;;4.91;100.00
38612;BME280;24368;52.156;20.788;2023-01-10T07:36:36;100081.09;;;4.82;100.00
38612;BME280;24368;52.156;20.788;2023-01-10T07:41:38;100079.17;;;4.82;100.00
38612;BME280;24368;52.156;20.788;2023-01-10T07:46:40;100078.58;;;4.90;100.00
38612;BME280;24368;52.156;20.788;2023-01-10T07:51:42;100082.20;;;4.79;100.00
38612;BME280;24368;52.156;20.788;2023-01-10T07:56:43;100087.73;;;4.76;100.00
38612;BME280;24368;52.156;20.788;2023-01-10T08:01:47;100094.67;;;4.78;100.00
38612;BME280;24368;52.156;20.788;2023-01-10T08:06:49;100101.70;;;4.76;100.00
38612;BME280;24368;52.156;20.788;2023-01-10T08:11:52;100110.79;;;4.71;100.00
38612;BME280;24368;52.156;20.788;2023-01-10T08:16:53;100122.02;;;4.71;100.00
38612;BME280;24368;52.156;20.788;2023-01-10T08:21:55;100123.86;;;4.72;100.00
38612;BME280;24368;52.156;20.788;2023-01-10T08:26:57;100134.02;;;4.78;100.00
38612;BME280;24368;52.156;20.788;2023-01-10T08:31:59;100135.77;;;4.73;100.00
38612;BME280;24368;52.156;20.788;2023-01-10T08:37:01;100140.75;;;4.72;100.00
38612;BME280;24368;52.156;20.788;2023-01-10T08:42:03;100141.30;;;4.69;100.00
38612;BME280;24368;52.156;20.788;2023-01-10T08:47:05;100148.77;;;4.83;100.00
38612;BME280;24368;52.156;20.788;2023-01-10T08:52:07;100157.55;;;4.89;100.00
38612;BME280;24368;52.156;20.788;2023-01-10T08:57:09;100164.36;;;4.80;100.00
38612;BME280;24368;52.156;20.788;2023-01-10T09:02:13;100176.14;;;4.85;100.00
38612;BME280;24368;52.156;20.788;2023-01-10T09:07:15;100183.15;;;4.96;100.00
38612;BME280;24368;52.156;20.788;2023-01-10T09:12:17;100188.64;;;4.91;100.00
38612;BME280;24368;52.156;20.788;2023-01-10T09:17:37;100189.61;;;4.83;100.00
38612;BME280;24368;52.156;20.788;2023-01-10T09:22:39;100200.60;;;4.87;100.00
38612;BME280;24368;52.156;20.788;2023-01-10T09:27:41;100198.31;;;4.94;100.00
38612;BME280;24368;52.156;20.788;2023-01-10T09:32:42;100195.58;;;5.04;100.00
38612;BME280;24368;52.156;20.788;2023-01-10T09:37:44;100196.40;;;5.05;100.00
38612;BME280;24368;52.156;20.788;2023-01-10T09:48:04;100196.42;;;5.11;100.00
38612;BME280;24368;52.156;20.788;2023-01-10T09:53:18;100192.27;;;5.22;100.00
38612;BME280;24368;52.156;20.788;2023-01-10T09:58:28;100194.59;;;5.26;100.00
38612;BME280;24368;52.156;20.788;2023-01-10T10:08:52;100202.98;;;5.21;100.00
38612;BME280;24368;52.156;20.788;2023-01-10T10:35:39;100210.83;;;5.36;100.00
38612;BME280;24368;52.156;20.788;2023-01-10T10:40:43;100212.84;;;5.41;100.00
38612;BME280;24368;52.156;20.788;2023-01-10T10:46:07;100218.30;;;5.39;100.00
38612;BME280;24368;52.156;20.788;2023-01-10T10:56:25;100226.63;;;5.50;100.00
38612;BME280;24368;52.156;20.788;2023-01-10T11:01:28;100235.05;;;5.54;100.00
38612;BME280;24368;52.156;20.788;2023-01-10T11:06:30;100234.04;;;5.50;100.00
38612;BME280;24368;52.156;20.788;2023-01-10T11:11:37;100231.77;;;5.45;100.00
38612;BME280;24368;52.156;20.788;2023-01-10T11:16:43;100239.66;;;5.49;100.00
38612;BME280;24368;52.156;20.788;2023-01-10T11:21:54;100246.54;;;5.55;100.00
38612;BME280;24368;52.156;20.788;2023-01-10T11:26:59;100265.81;;;5.48;100.00
38612;BME280;24368;52.156;20.788;2023-01-10T11:37:28;100275.45;;;5.45;100.00
38612;BME280;24368;52.156;20.788;2023-01-10T11:42:32;100284.35;;;5.50;100.00
38612;BME280;24368;52.156;20.788;2023-01-10T11:47:34;100285.75;;;5.48;100.00
38612;BME280;24368;52.156;20.788;2023-01-10T11:52:42;100290.88;;;5.47;100.00
38612;BME280;24368;52.156;20.788;2023-01-10T11:57:45;100291.91;;;5.54;100.00
38612;BME280;24368;52.156;20.788;2023-01-10T12:02:54;100301.58;;;5.59;100.00
38612;BME280;24368;52.156;20.788;2023-01-10T12:08:00;100311.34;;;5.60;100.00
38612;BME280;24368;52.156;20.788;2023-01-10T12:13:13;100312.22;;;5.55;100.00
38612;BME280;24368;52.156;20.788;2023-01-10T12:18:17;100322.79;;;5.59;100.00
38612;BME280;24368;52.156;20.788;2023-01-10T12:23:21;100329.52;;;5.64;100.00
38612;BME280;24368;52.156;20.788;2023-01-10T12:28:26;100336.97;;;5.67;100.00
38612;BME280;24368;52.156;20.788;2023-01-10T12:33:39;100345.41;;;5.67;100.00
38612;BME280;24368;52.156;20.788;2023-01-10T12:38:46;100349.34;;;5.59;100.00
38612;BME280;24368;52.156;20.788;2023-01-10T12:44:15;100351.77;;;5.61;100.00
38612;BME280;24368;52.156;20.788;2023-01-10T12:49:57;100362.13;;;5.63;100.00
38612;BME280;24368;52.156;20.788;2023-01-10T12:55:00;100368.48;;;5.64;100.00
38612;BME280;24368;52.156;20.788;2023-01-10T13:00:07;100373.77;;;5.61;100.00
38612;BME280;24368;52.156;20.788;2023-01-10T13:05:22;100383.05;;;5.59;100.00
38612;BME280;24368;52.156;20.788;2023-01-10T13:10:25;100383.28;;;5.70;100.00
38612;BME280;24368;52.156;20.788;2023-01-10T13:15:36;100399.83;;;5.70;100.00
38612;BME280;24368;52.156;20.788;2023-01-10T13:20:40;100407.64;;;5.57;100.00
38612;BME280;24368;52.156;20.788;2023-01-10T13:25:53;100414.62;;;5.58;100.00
38612;BME280;24368;52.156;20.788;2023-01-10T13:31:00;100425.41;;;5.67;100.00
38612;BME280;24368;52.156;20.788;2023-01-10T13:36:09;100442.30;;;5.57;100.00
38612;BME280;24368;52.156;20.788;2023-01-10T13:41:11;100446.94;;;5.44;100.00
38612;BME280;24368;52.156;20.788;2023-01-10T13:46:36;100450.11;;;5.49;100.00
38612;BME280;24368;52.156;20.788;2023-01-10T13:51:38;100449.63;;;5.50;100.00
38612;BME280;24368;52.156;20.788;2023-01-10T13:57:00;100457.74;;;5.38;100.00
38612;BME280;24368;52.156;20.788;2023-01-10T14:02:02;100469.77;;;5.36;100.00
38612;BME280;24368;52.156;20.788;2023-01-10T14:12:39;100487.84;;;5.31;100.00
38612;BME280;24368;52.156;20.788;2023-01-10T14:18:06;100495.26;;;5.18;100.00
38612;BME280;24368;52.156;20.788;2023-01-10T14:28:30;100498.42;;;5.20;100.00
38612;BME280;24368;52.156;20.788;2023-01-10T14:33:35;100500.08;;;5.17;100.00
38612;BME280;24368;52.156;20.788;2023-01-10T14:38:38;100511.60;;;5.07;100.00
38612;BME280;24368;52.156;20.788;2023-01-10T14:49:27;100511.80;;;5.00;100.00
38612;BME280;24368;52.156;20.788;2023-01-10T14:54:29;100516.27;;;4.85;100.00
38612;BME280;24368;52.156;20.788;2023-01-10T14:59:33;100515.17;;;4.83;100.00
38612;BME280;24368;52.156;20.788;2023-01-10T15:04:36;100523.71;;;4.66;100.00
38612;BME280;24368;52.156;20.788;2023-01-10T15:09:48;100517.81;;;4.51;100.00
38612;BME280;24368;52.156;20.788;2023-01-10T15:15:00;100522.23;;;4.58;100.00
38612;BME280;24368;52.156;20.788;2023-01-10T15:20:03;100532.45;;;4.64;100.00
38612;BME280;24368;52.156;20.788;2023-01-10T15:30:28;100550.73;;;4.45;100.00
38612;BME280;24368;52.156;20.788;2023-01-10T15:35:31;100550.39;;;4.35;100.00
38612;BME280;24368;52.156;20.788;2023-01-10T15:40:35;100554.02;;;4.45;100.00
38612;BME280;24368;52.156;20.788;2023-01-10T15:45:38;100559.08;;;4.45;100.00
38612;BME280;24368;52.156;20.788;2023-01-10T15:50:53;100571.73;;;4.35;100.00
38612;BME280;24368;52.156;20.788;2023-01-10T15:56:09;100584.13;;;4.16;100.00
38612;BME280;24368;52.156;20.788;2023-01-10T16:01:13;100581.34;;;4.22;100.00
38612;BME280;24368;52.156;20.788;2023-01-10T16:06:24;100578.23;;;4.39;100.00
38612;BME280;24368;52.156;20.788;2023-01-10T16:11:35;100588.77;;;4.35;100.00
38612;BME280;24368;52.156;20.788;2023-01-10T16:16:58;100598.33;;;4.24;100.00
38612;BME280;24368;52.156;20.788;2023-01-10T16:22:00;100594.84;;;4.24;100.00
38612;BME280;24368;52.156;20.788;2023-01-10T16:27:03;100593.59;;;4.24;100.00
38612;BME280;24368;52.156;20.788;2023-01-10T16:32:13;100599.70;;;4.31;100.00
38612;BME280;24368;52.156;20.788;2023-01-10T16:37:15;100601.38;;;4.17;100.00
38612;BME280;24368;52.156;20.788;2023-01-10T16:42:16;100604.35;;;4.17;100.00
38612;BME280;24368;52.156;20.788;2023-01-10T16:47:37;100599.55;;;4.18;100.00
38612;BME280;24368;52.156;20.788;2023-01-10T16:52:39;100592.71;;;4.31;100.00
38612;BME280;24368;52.156;20.788;2023-01-10T16:57:41;100596.67;;;4.32;100.00
38612;BME280;24368;52.156;20.788;2023-01-10T17:02:47;100601.58;;;4.22;100.00
38612;BME280;24368;52.156;20.788;2023-01-10T17:07:49;100612.57;;;4.16;100.00
38612;BME280;24368;52.156;20.788;2023-01-10T17:12:52;100631.25;;;4.16;100.00
38612;BME280;24368;52.156;20.788;2023-01-10T17:17:54;100653.45;;;4.03;100.00
38612;BME280;24368;52.156;20.788;2023-01-10T17:22:56;100659.22;;;3.84;100.00
38612;BME280;24368;52.156;20.788;2023-01-10T17:27:58;100662.52;;;3.88;100.00
38612;BME280;24368;52.156;20.788;2023-01-10T17:32:59;100666.13;;;3.81;100.00
38612;BME280;24368;52.156;20.788;2023-01-10T17:38:01;100662.76;;;3.79;100.00
38612;BME280;24368;52.156;20.788;2023-01-10T17:43:03;100664.10;;;3.71;100.00
38612;BME280;24368;52.156;20.788;2023-01-10T17:48:05;100668.17;;;3.60;100.00
38612;BME280;24368;52.156;20.788;2023-01-10T17:53:07;100672.61;;;3.74;100.00
38612;BME280;24368;52.156;20.788;2023-01-10T17:58:09;100687.20;;;3.67;100.00
38612;BME280;24368;52.156;20.788;2023-01-10T18:03:11;100699.80;;;3.61;100.00
38612;BME280;24368;52.156;20.788;2023-01-10T18:08:14;100704.27;;;3.57;100.00
38612;BME280;24368;52.156;20.788;2023-01-10T18:13:17;100698.42;;;3.66;100.00
38612;BME280;24368;52.156;20.788;2023-01-10T18:18:21;100704.00;;;3.69;100.00
38612;BME280;24368;52.156;20.788;2023-01-10T18:23:25;100708.05;;;3.65;100.00
38612;BME280;24368;52.156;20.788;2023-01-10T18:28:34;100719.63;;;3.54;100.00
38612;BME280;24368;52.156;20.788;2023-01-10T18:33:37;100724.95;;;3.39;100.00
38612;BME280;24368;52.156;20.788;2023-01-10T18:38:38;100731.55;;;3.28;100.00
38612;BME280;24368;52.156;20.788;2023-01-10T18:43:40;100730.45;;;3.32;100.00
38612;BME280;24368;52.156;20.788;2023-01-10T18:48:43;100737.31;;;3.31;100.00
38612;BME280;24368;52.156;20.788;2023-01-10T18:53:45;100750.50;;;3.21;100.00
38612;BME280;24368;52.156;20.788;2023-01-10T18:58:48;100763.25;;;3.12;100.00
38612;BME280;24368;52.156;20.788;2023-01-10T19:03:50;100768.42;;;3.12;100.00
38612;BME280;24368;52.156;20.788;2023-01-10T19:08:52;100763.95;;;3.17;100.00
38612;BME280;24368;52.156;20.788;2023-01-10T19:13:54;100764.09;;;3.18;100.00
38612;BME280;24368;52.156;20.788;2023-01-10T19:18:59;100772.82;;;3.06;100.00
38612;BME280;24368;52.156;20.788;2023-01-10T19:24:04;100776.84;;;2.98;100.00
38612;BME280;24368;52.156;20.788;2023-01-10T19:29:07;100779.36;;;2.91;100.00
38612;BME280;24368;52.156;20.788;2023-01-10T19:34:10;100779.18;;;2.82;100.00
38612;BME280;24368;52.156;20.788;2023-01-10T19:39:13;100784.73;;;2.80;100.00
38612;BME280;24368;52.156;20.788;2023-01-10T19:44:15;100787.57;;;2.76;100.00
38612;BME280;24368;52.156;20.788;2023-01-10T19:49:17;100798.34;;;2.64;100.00
38612;BME280;24368;52.156;20.788;2023-01-10T19:54:21;100808.21;;;2.54;100.00
38612;BME280;24368;52.156;20.788;2023-01-10T19:59:24;100800.30;;;2.58;100.00
38612;BME280;24368;52.156;20.788;2023-01-10T20:04:27;100804.00;;;2.52;100.00
38612;BME280;24368;52.156;20.788;2023-01-10T20:09:29;100799.95;;;2.41;100.00
38612;BME280;24368;52.156;20.788;2023-01-10T20:14:31;100801.61;;;2.42;100.00
38612;BME280;24368;52.156;20.788;2023-01-10T20:19:32;100800.34;;;2.49;100.00
38612;BME280;24368;52.156;20.788;2023-01-10T20:24:34;100801.84;;;2.44;100.00
38612;BME280;24368;52.156;20.788;2023-01-10T20:29:36;100811.47;;;2.43;100.00
38612;BME280;24368;52.156;20.788;2023-01-10T20:34:40;100813.11;;;2.50;100.00
38612;BME280;24368;52.156;20.788;2023-01-10T20:39:43;100807.36;;;2.59;100.00
38612;BME280;24368;52.156;20.788;2023-01-10T20:44:45;100805.21;;;2.51;100.00
38612;BME280;24368;52.156;20.788;2023-01-10T20:49:46;100814.71;;;2.47;100.00
38612;BME280;24368;52.156;20.788;2023-01-10T20:54:48;100820.73;;;2.51;100.00
38612;BME280;24368;52.156;20.788;2023-01-10T20:59:50;100827.77;;;2.38;100.00
38612;BME280;24368;52.156;20.788;2023-01-10T21:04:52;100826.11;;;2.51;100.00
38612;BME280;24368;52.156;20.788;2023-01-10T21:09:53;100826.98;;;2.51;100.00
38612;BME280;24368;52.156;20.788;2023-01-10T21:14:55;100829.77;;;2.51;100.00
38612;BME280;24368;52.156;20.788;2023-01-10T21:19:57;100834.77;;;2.46;100.00
38612;BME280;24368;52.156;20.788;2023-01-10T21:24:58;100832.45;;;2.47;100.00
38612;BME280;24368;52.156;20.788;2023-01-10T21:30:00;100835.33;;;2.51;100.00
38612;BME280;24368;52.156;20.788;2023-01-10T21:35:02;100831.66;;;2.51;100.00
38612;BME280;24368;52.156;20.788;2023-01-10T21:40:05;100827.39;;;2.59;100.00
38612;BME280;24368;52.156;20.788;2023-01-10T21:45:07;100840.60;;;2.68;100.00
38612;BME280;24368;52.156;20.788;2023-01-10T21:50:10;100836.29;;;2.58;100.00
38612;BME280;24368;52.156;20.788;2023-01-10T21:55:13;100843.80;;;2.61;100.00
38612;BME280;24368;52.156;20.788;2023-01-10T22:00:17;100849.60;;;2.54;100.00
38612;BME280;24368;52.156;20.788;2023-01-10T22:05:18;100848.73;;;2.60;100.00
38612;BME280;24368;52.156;20.788;2023-01-10T22:10:21;100857.02;;;2.72;100.00
38612;BME280;24368;52.156;20.788;2023-01-10T22:15:23;100852.70;;;2.69;100.00
38612;BME280;24368;52.156;20.788;2023-01-10T22:20:24;100851.19;;;2.77;100.00
38612;BME280;24368;52.156;20.788;2023-01-10T22:25:26;100852.17;;;2.69;100.00
38612;BME280;24368;52.156;20.788;2023-01-10T22:30:28;100848.41;;;2.74;100.00
38612;BME280;24368;52.156;20.788;2023-01-10T22:35:30;100849.43;;;2.86;100.00
38612;BME280;24368;52.156;20.788;2023-01-10T22:40:31;100849.89;;;2.90;100.00
38612;BME280;24368;52.156;20.788;2023-01-10T22:45:34;100853.94;;;2.92;100.00
38612;BME280;24368;52.156;20.788;2023-01-10T22:50:37;100863.33;;;2.72;100.00
38612;BME280;24368;52.156;20.788;2023-01-10T22:55:40;100860.38;;;2.63;100.00
38612;BME280;24368;52.156;20.788;2023-01-10T23:00:41;100870.91;;;2.67;100.00
38612;BME280;24368;52.156;20.788;2023-01-10T23:05:43;100871.39;;;2.74;100.00
38612;BME280;24368;52.156;20.788;2023-01-10T23:10:46;100873.27;;;2.75;100.00
38612;BME280;24368;52.156;20.788;2023-01-10T23:16:15;100866.58;;;2.79;100.00
38612;BME280;24368;52.156;20.788;2023-01-10T23:21:18;100872.16;;;2.79;100.00
38612;BME280;24368;52.156;20.788;2023-01-10T23:26:19;100873.83;;;2.77;100.00
38612;BME280;24368;52.156;20.788;2023-01-10T23:31:22;100873.94;;;2.81;100.00
38612;BME280;24368;52.156;20.788;2023-01-10T23:36:24;100874.48;;;2.83;100.00
38612;BME280;24368;52.156;20.788;2023-01-10T23:41:26;100877.33;;;2.85;100.00
38612;BME280;24368;52.156;20.788;2023-01-10T23:46:28;100880.77;;;2.75;100.00
38612;BME280;24368;52.156;20.788;2023-01-10T23:51:29;100881.15;;;2.82;100.00
38612;BME280;24368;52.156;20.788;2023-01-10T23:56:31;100883.23;;;2.70;100.00
